Time;durP1;ratioP1;P1;durP2;ratioP2;P2;SDS_P1;SDS_P2;PMS_P1;PMS_P2;Temp;Humidity;BMP_temperature;BMP_pressure;BME280_temperature;BME280_humidity;BME280_pressure;Samples;Min_cycle;Max_cycle;Signal;HPM_P1;HPM_P2
2021/07/28 00:01:22;;;;;;;;;12.75;9.00;;;;;24.17;55.13;100670.03;5078132;27;45786;-45
2021/07/28 00:03:48;;;;;;;;;10.25;8.75;;;;;24.18;54.67;100673.56;5078281;27;45345;-46
2021/07/28 00:06:18;;;;;;;;;9.75;7.75;;;;;24.18;55.21;100674.38;5078467;27;45415;-45
2021/07/28 00:08:43;;;;;;;;;8.25;7.25;;;;;24.19;55.01;100677.88;5078050;28;45337;-49
2021/07/28 00:11:13;;;;;;;;;9.00;8.50;;;;;24.17;54.82;100669.22;5078430;27;45453;-44
2021/07/28 00:13:38;;;;;;;;;8.00;7.25;;;;;24.17;54.83;100667.38;5078422;27;45327;-53
2021/07/28 00:16:09;;;;;;;;;8.50;8.50;;;;;24.16;55.20;100663.06;5078420;27;45291;-47
2021/07/28 00:18:43;;;;;;;;;6.50;6.50;;;;;24.18;54.58;100670.91;5077667;27;46184;-48
2021/07/28 00:23:53;;;;;;;;;7.25;7.25;;;;;24.17;54.77;100670.03;5077915;28;45492;-48
2021/07/28 00:26:18;;;;;;;;;6.50;6.50;;;;;24.17;54.47;100671.84;5078150;27;45268;-55
2021/07/28 00:28:43;;;;;;;;;8.75;6.00;;;;;24.17;54.90;100666.56;5077603;27;45996;-52
2021/07/28 00:31:09;;;;;;;;;7.75;7.00;;;;;24.17;54.90;100666.56;5077965;27;45501;-50
2021/07/28 00:33:34;;;;;;;;;9.75;8.25;;;;;24.17;54.31;100666.56;5077684;28;45945;-52
2021/07/28 00:36:00;;;;;;;;;7.00;6.75;;;;;24.17;54.23;100661.25;5077981;27;45468;-51
2021/07/28 00:38:25;;;;;;;;;8.00;7.75;;;;;24.17;54.19;100661.25;5077411;27;46302;-53
2021/07/28 00:40:51;;;;;;;;;9.25;7.75;;;;;24.13;54.22;100658.00;5077612;27;45463;-55
2021/07/28 00:43:16;;;;;;;;;8.00;7.00;;;;;24.15;54.33;100658.72;5077622;28;45302;-50
2021/07/28 00:45:44;;;;;;;;;5.25;5.25;;;;;24.15;54.40;100655.22;5078141;27;45548;-49
2021/07/28 00:48:10;;;;;;;;;5.75;5.00;;;;;24.15;54.35;100649.94;5078127;27;45723;-48
2021/07/28 00:50:39;;;;;;;;;5.25;5.00;;;;;24.14;53.77;100645.59;5077399;27;45666;-52
2021/07/28 00:53:04;;;;;;;;;7.75;5.25;;;;;24.13;54.30;100655.34;5077487;27;45431;-45
2021/07/28 00:55:31;;;;;;;;;7.00;6.00;;;;;24.13;54.13;100657.13;5077595;27;45612;-50
2021/07/28 00:58:00;;;;;;;;;5.25;4.00;;;;;24.12;54.13;100653.66;5076966;27;46017;-48
2021/07/28 01:00:27;;;;;;;;;6.50;5.00;;;;;24.12;54.14;100656.31;5077247;27;45236;-49
2021/07/28 01:02:53;;;;;;;;;5.25;5.25;;;;;24.13;53.48;100657.13;5077456;27;45347;-51
2021/07/28 01:05:18;;;;;;;;;6.00;4.00;;;;;24.11;53.86;100651.09;5077275;27;49541;-54
2021/07/28 01:07:43;;;;;;;;;7.00;6.00;;;;;24.12;53.95;100652.81;5076565;27;46122;-47
2021/07/28 01:10:09;;;;;;;;;8.50;7.50;;;;;24.11;54.32;100661.69;5076246;27;45417;-49
2021/07/28 01:12:41;;;;;;;;;4.00;4.00;;;;;24.10;53.74;100660.88;5077114;27;45304;-52
2021/07/28 01:15:07;;;;;;;;;5.50;4.75;;;;;24.08;53.52;100658.34;5077255;28;45216;-51
2021/07/28 01:17:33;;;;;;;;;5.00;5.00;;;;;24.09;53.67;100660.00;5092667;27;48424;-53
2021/07/28 01:20:04;;;;;;;;;3.50;3.00;;;;;24.09;53.81;100659.16;5076849;27;45362;-47
2021/07/28 01:22:30;;;;;;;;;5.00;5.00;;;;;24.07;53.58;100667.25;5077128;27;45743;-52
2021/07/28 01:24:55;;;;;;;;;4.50;4.00;;;;;24.08;53.38;100671.59;5077157;28;45380;-51
2021/07/28 01:27:21;;;;;;;;;6.00;4.50;;;;;24.07;53.15;100667.25;5076731;27;45356;-53
2021/07/28 01:29:47;;;;;;;;;3.00;3.00;;;;;24.06;53.48;100665.53;5077074;27;45232;-52
2021/07/28 01:32:14;;;;;;;;;5.50;4.50;;;;;24.06;53.11;100670.84;5076624;28;59323;-47
2021/07/28 01:34:40;;;;;;;;;4.00;4.00;;;;;24.06;53.60;100669.97;5076186;28;45661;-49
2021/07/28 01:37:06;;;;;;;;;4.00;4.00;;;;;24.05;53.42;100665.63;5076640;27;46501;-52
2021/07/28 01:39:32;;;;;;;;;6.75;5.00;;;;;24.06;53.21;100672.63;5076633;27;46189;-55
2021/07/28 01:42:01;;;;;;;;;2.75;2.50;;;;;24.05;53.31;100670.94;5076890;27;45315;-55
2021/07/28 01:44:27;;;;;;;;;3.75;3.75;;;;;24.04;53.12;100678.03;5076992;28;45334;-56
2021/07/28 01:46:52;;;;;;;;;4.50;4.50;;;;;24.02;52.73;100677.31;5075210;28;45284;-49
2021/07/28 01:49:18;;;;;;;;;6.75;5.00;;;;;24.02;53.19;100674.66;5076577;27;45271;-47
2021/07/28 01:51:44;;;;;;;;;5.50;4.00;;;;;24.03;52.73;100679.00;5076963;27;45437;-44
2021/07/28 01:54:09;;;;;;;;;3.00;3.00;;;;;24.03;52.60;100681.66;5076739;27;45387;-48
2021/07/28 01:56:42;;;;;;;;;4.50;3.75;;;;;24.03;52.85;100679.00;5076153;27;47686;-48
2021/07/28 01:59:08;;;;;;;;;5.25;5.25;;;;;24.03;52.67;100692.25;5076424;27;45177;-48
2021/07/28 02:01:33;;;;;;;;;5.00;5.00;;;;;24.03;52.71;100686.13;5075303;27;45376;-48
2021/07/28 02:03:59;;;;;;;;;3.50;3.50;;;;;24.02;52.57;100693.19;5076639;27;45597;-49
2021/07/28 02:06:25;;;;;;;;;5.00;4.00;;;;;24.01;52.55;100688.03;5076237;27;46482;-46
2021/07/28 02:08:50;;;;;;;;;5.50;4.75;;;;;24.01;52.46;100686.19;5076408;27;45464;-44
2021/07/28 02:11:16;;;;;;;;;4.25;3.75;;;;;24.01;52.39;100685.38;5076878;27;45351;-47
2021/07/28 02:13:41;;;;;;;;;4.00;3.50;;;;;24.01;52.07;100683.56;5076869;27;45379;-45
2021/07/28 02:16:07;;;;;;;;;4.00;3.25;;;;;24.01;52.27;100686.19;5076187;27;45375;-51
2021/07/28 02:18:32;;;;;;;;;3.25;3.25;;;;;24.01;52.51;100688.84;5077159;27;45323;-51
2021/07/28 02:20:58;;;;;;;;;4.00;3.00;;;;;24.00;52.55;100684.50;5079927;27;45346;-50
2021/07/28 02:23:24;;;;;;;;;3.25;3.25;;;;;24.02;52.35;100695.00;5078717;28;45536;-49
2021/07/28 02:25:49;;;;;;;;;2.00;2.00;;;;;24.01;52.43;100694.16;5078526;28;48315;-52
2021/07/28 02:28:14;;;;;;;;;3.25;3.25;;;;;24.01;52.43;100694.16;5079630;27;51572;-48
2021/07/28 02:30:39;;;;;;;;;6.50;4.00;;;;;24.01;52.23;100688.03;5079683;28;47787;-52
2021/07/28 02:33:05;;;;;;;;;3.25;3.25;;;;;24.00;52.36;100684.50;5095514;27;45452;-49
2021/07/28 02:35:30;;;;;;;;;3.00;3.00;;;;;24.01;52.10;100686.19;5079621;27;45915;-51
2021/07/28 02:37:56;;;;;;;;;4.00;4.00;;;;;24.01;51.90;100691.50;5078272;28;45240;-55
2021/07/28 02:40:21;;;;;;;;;3.75;3.75;;;;;24.00;52.29;100688.97;5079715;27;45232;-46
2021/07/28 02:42:48;;;;;;;;;8.25;4.75;;;;;24.00;52.06;100692.44;5080072;27;45611;-57
2021/07/28 02:45:14;;;;;;;;;5.00;3.00;;;;;24.00;52.06;100689.81;5079694;27;46636;-44
2021/07/28 02:47:39;;;;;;;;;4.75;4.50;;;;;24.00;51.94;100688.97;5079437;27;45495;-46
2021/07/28 02:50:06;;;;;;;;;4.00;4.00;;;;;24.00;51.89;100689.81;5079529;28;45304;-46
2021/07/28 02:52:31;;;;;;;;;3.75;3.75;;;;;24.00;51.48;100686.31;5079508;28;45475;-50
2021/07/28 02:54:58;;;;;;;;;4.00;4.00;;;;;24.00;51.98;100688.97;5079109;27;45917;-51
2021/07/28 02:57:23;;;;;;;;;5.50;3.25;;;;;23.99;51.46;100696.06;5079108;27;45703;-47
2021/07/28 02:59:49;;;;;;;;;4.25;3.00;;;;;23.99;51.75;100696.06;5079525;27;45360;-51
2021/07/28 03:02:14;;;;;;;;;6.75;4.25;;;;;23.99;51.47;100697.88;5079379;27;49752;-53
2021/07/28 03:04:39;;;;;;;;;4.50;3.00;;;;;23.98;51.44;100694.34;5079110;27;46289;-54
2021/07/28 03:07:05;;;;;;;;;2.00;2.00;;;;;23.99;51.69;100700.50;5079017;27;45340;-54
2021/07/28 03:09:30;;;;;;;;;2.00;2.00;;;;;23.98;51.16;100704.94;5079187;27;45213;-55
2021/07/28 03:11:55;;;;;;;;;3.50;3.50;;;;;23.97;51.79;100708.56;5079294;27;45445;-56
2021/07/28 03:14:21;;;;;;;;;5.75;3.50;;;;;23.98;51.68;100699.66;5079012;27;45284;-52
2021/07/28 03:16:46;;;;;;;;;3.00;3.00;;;;;23.98;51.57;100698.81;5079167;27;45231;-54
2021/07/28 03:19:11;;;;;;;;;3.25;2.25;;;;;23.98;50.99;100698.81;5079041;27;45200;-54
2021/07/28 03:21:37;;;;;;;;;3.00;3.00;;;;;23.97;51.11;100705.94;5079235;27;45388;-55
2021/07/28 03:24:02;;;;;;;;;3.00;2.75;;;;;23.96;51.34;100716.59;5078876;27;45220;-48
2021/07/28 03:26:28;;;;;;;;;5.00;4.00;;;;;23.97;51.43;100715.66;5078756;27;45377;-54
2021/07/28 03:28:53;;;;;;;;;2.00;2.00;;;;;23.96;51.19;100712.19;5078469;27;45378;-47
2021/07/28 03:31:18;;;;;;;;;3.25;3.00;;;;;23.95;51.06;100710.47;5079337;27;45472;-47
2021/07/28 03:33:44;;;;;;;;;4.00;3.50;;;;;23.96;51.18;100714.81;5078621;27;45973;-49
2021/07/28 03:36:09;;;;;;;;;5.25;3.25;;;;;23.94;51.26;100708.75;5077444;27;45518;-50
2021/07/28 03:38:35;;;;;;;;;4.50;2.50;;;;;23.94;51.10;100711.41;5078691;27;45441;-51
2021/07/28 03:41:00;;;;;;;;;2.50;2.50;;;;;23.93;50.71;100713.19;5078854;28;45577;-49
2021/07/28 03:43:25;;;;;;;;;3.25;3.00;;;;;23.94;50.92;100703.47;5078439;27;45934;-49
2021/07/28 03:45:51;;;;;;;;;2.00;2.00;;;;;23.93;50.78;100707.06;5078800;27;45451;-50
2021/07/28 03:48:17;;;;;;;;;3.25;3.25;;;;;23.93;50.69;100713.19;5079058;28;45722;-50
2021/07/28 03:50:42;;;;;;;;;3.00;3.00;;;;;23.93;50.71;100707.06;5078768;27;45619;-50
2021/07/28 03:53:08;;;;;;;;;5.25;4.00;;;;;23.92;51.07;100710.66;5078258;27;45927;-54
2021/07/28 03:55:34;;;;;;;;;4.25;3.25;;;;;23.91;51.12;100716.91;5078547;27;45325;-51
2021/07/28 03:57:59;;;;;;;;;3.00;3.00;;;;;23.93;50.44;100718.47;5078241;27;45480;-52
2021/07/28 04:00:24;;;;;;;;;4.00;3.00;;;;;23.92;50.64;100711.50;5078669;27;45291;-53
2021/07/28 04:02:50;;;;;;;;;2.50;2.50;;;;;23.92;50.59;100710.66;5078510;27;45431;-48
2021/07/28 04:05:16;;;;;;;;;2.00;2.00;;;;;23.92;50.34;100721.25;5078277;27;45329;-48
2021/07/28 04:07:42;;;;;;;;;3.25;3.25;;;;;23.91;50.23;100725.72;5078219;27;45428;-52
2021/07/28 04:10:08;;;;;;;;;3.00;3.00;;;;;23.91;50.57;100731.00;5078454;27;45584;-49
2021/07/28 04:12:34;;;;;;;;;5.00;3.00;;;;;23.92;50.14;100726.53;5077975;27;46187;-51
2021/07/28 04:14:59;;;;;;;;;3.75;3.75;;;;;23.91;50.31;100736.31;5078127;27;45497;-52
2021/07/28 04:17:24;;;;;;;;;2.25;2.25;;;;;23.90;50.39;100729.31;5078139;27;45424;-55
2021/07/28 04:19:50;;;;;;;;;3.00;3.00;;;;;23.92;49.80;100731.84;5078537;27;45466;-51
2021/07/28 04:22:19;;;;;;;;;3.00;3.00;;;;;23.91;49.77;100730.16;5077845;27;45419;-51
2021/07/28 04:24:45;;;;;;;;;2.25;2.00;;;;;23.91;50.30;100733.66;5077868;27;45375;-51
2021/07/28 04:27:11;;;;;;;;;3.00;3.00;;;;;23.91;49.72;100730.16;5077993;27;45382;-52
2021/07/28 04:29:36;;;;;;;;;2.00;2.00;;;;;23.91;49.81;100731.00;5078054;27;45523;-51
2021/07/28 04:32:02;;;;;;;;;4.25;3.25;;;;;23.92;50.03;100737.13;5077598;27;46280;-52
2021/07/28 04:34:27;;;;;;;;;5.25;3.25;;;;;23.91;49.80;100731.00;5077735;27;45220;-56
2021/07/28 04:36:52;;;;;;;;;3.75;3.00;;;;;23.90;49.17;100733.75;5077438;27;53990;-51
2021/07/28 04:39:18;;;;;;;;;2.50;2.25;;;;;23.91;49.48;100743.38;5077867;27;45222;-49
2021/07/28 04:41:43;;;;;;;;;3.00;3.00;;;;;23.90;49.46;100739.03;5076546;27;46026;-49
2021/07/28 04:44:08;;;;;;;;;1.50;1.50;;;;;23.88;49.49;100739.16;5076182;28;46341;-48
2021/07/28 04:46:34;;;;;;;;;2.50;2.50;;;;;23.88;49.35;100735.66;5077698;27;45712;-49
2021/07/28 04:48:59;;;;;;;;;2.75;2.75;;;;;23.88;49.58;100743.59;5077817;27;45546;-45
2021/07/28 04:51:26;;;;;;;;;3.25;3.25;;;;;23.87;49.31;100744.53;5077337;27;46331;-49
2021/07/28 04:53:51;;;;;;;;;2.00;2.00;;;;;23.84;49.17;100745.63;5077699;27;45883;-45
2021/07/28 04:56:17;;;;;;;;;2.00;2.00;;;;;23.87;49.26;100739.25;5077416;27;45648;-47
2021/07/28 04:58:42;;;;;;;;;4.50;3.00;;;;;23.85;48.86;100736.72;5077503;27;45436;-46
2021/07/28 05:01:07;;;;;;;;;1.75;1.75;;;;;23.86;49.29;100742.88;5076869;28;55120;-50
2021/07/28 05:03:33;;;;;;;;;2.00;2.00;;;;;23.85;48.75;100738.53;5077026;27;52192;-46
2021/07/28 05:05:58;;;;;;;;;5.25;4.00;;;;;23.84;48.97;100742.97;5077334;27;45391;-49
2021/07/28 05:08:23;;;;;;;;;2.00;2.00;;;;;23.85;48.97;100746.47;5077786;27;45543;-51
2021/07/28 05:10:49;;;;;;;;;3.00;3.00;;;;;23.85;49.30;100741.19;5077060;27;48959;-47
2021/07/28 05:13:14;;;;;;;;;4.00;3.00;;;;;23.86;49.37;100756.13;5077260;27;45255;-46
2021/07/28 05:15:39;;;;;;;;;5.75;2.00;;;;;23.85;49.18;100752.59;5077352;27;45175;-47
2021/07/28 05:18:05;;;;;;;;;1.25;1.25;;;;;23.86;49.17;100761.41;5077254;27;45236;-46
2021/07/28 05:20:30;;;;;;;;;3.25;2.50;;;;;23.86;49.04;100756.13;5077031;27;46294;-49
2021/07/28 05:22:55;;;;;;;;;3.75;2.00;;;;;23.85;48.86;100752.59;5076815;27;47653;-46
2021/07/28 05:25:21;;;;;;;;;2.75;2.75;;;;;23.87;48.87;100755.13;5077532;27;45406;-48
2021/07/28 05:27:46;;;;;;;;;3.25;2.00;;;;;23.83;48.98;100757.16;5077293;28;45520;-46
2021/07/28 05:30:12;;;;;;;;;3.25;2.00;;;;;23.87;48.79;100760.44;5076878;27;45941;-45
2021/07/28 05:32:37;;;;;;;;;2.50;2.50;;;;;23.85;48.93;100752.59;5076921;27;45354;-47
2021/07/28 05:35:03;;;;;;;;;3.75;3.00;;;;;23.86;48.55;100759.59;5076686;27;47911;-47
2021/07/28 05:37:28;;;;;;;;;2.25;2.25;;;;;23.85;49.07;100760.53;5077028;27;45323;-47
2021/07/28 05:39:55;;;;;;;;;2.50;2.50;;;;;23.85;48.94;100762.34;5077196;27;45409;-52
2021/07/28 05:42:21;;;;;;;;;2.75;2.50;;;;;23.83;49.00;100758.97;5076872;27;45322;-54
2021/07/28 05:44:46;;;;;;;;;2.50;2.50;;;;;23.82;48.75;100760.75;5076996;28;45395;-54
2021/07/28 05:47:12;;;;;;;;;3.25;3.00;;;;;23.82;48.29;100763.41;5076998;27;45414;-54
2021/07/28 05:49:37;;;;;;;;;4.25;3.00;;;;;23.81;48.28;100766.16;5076686;27;46804;-49
2021/07/28 05:52:03;;;;;;;;;1.75;1.75;;;;;23.81;48.68;100768.81;5076429;27;45462;-51
2021/07/28 05:54:28;;;;;;;;;3.50;3.50;;;;;23.80;48.67;100772.41;5076911;27;45451;-48
2021/07/28 05:56:53;;;;;;;;;2.00;2.00;;;;;23.82;48.57;100775.81;5076747;27;45302;-49
2021/07/28 05:59:20;;;;;;;;;3.50;3.00;;;;;23.81;48.55;100772.31;5076552;27;45395;-47
2021/07/28 06:01:45;;;;;;;;;2.50;2.50;;;;;23.82;48.62;100775.81;5076638;27;45303;-53
2021/07/28 06:04:11;;;;;;;;;2.00;2.00;;;;;23.82;48.63;100776.63;5076524;27;45227;-44
2021/07/28 06:06:36;;;;;;;;;3.00;3.00;;;;;23.81;48.97;100782.91;5092575;27;45630;-47
2021/07/28 06:09:01;;;;;;;;;5.00;2.50;;;;;23.83;48.73;100785.44;5076007;27;52664;-50
2021/07/28 06:11:27;;;;;;;;;3.00;1.75;;;;;23.83;48.51;100790.72;5076811;27;45302;-43
2021/07/28 06:13:52;;;;;;;;;5.00;3.00;;;;;23.83;48.53;100788.91;5076682;27;45254;-45
2021/07/28 06:16:18;;;;;;;;;4.00;2.50;;;;;23.82;48.43;100786.38;5076673;27;45223;-49
2021/07/28 06:18:43;;;;;;;;;2.25;2.25;;;;;23.80;48.41;100785.63;5075999;27;46109;-44
2021/07/28 06:21:09;;;;;;;;;3.25;3.25;;;;;23.82;48.25;100789.03;5076027;27;45177;-47
2021/07/28 06:23:35;;;;;;;;;3.00;3.00;;;;;23.78;48.24;100789.25;5076399;27;45416;-48
2021/07/28 06:26:00;;;;;;;;;3.00;3.00;;;;;23.77;48.81;100790.19;5076499;27;45398;-47
2021/07/28 06:28:28;;;;;;;;;3.00;3.00;;;;;23.79;48.42;100800.69;5076388;27;46450;-49
2021/07/28 06:30:54;;;;;;;;;5.00;2.50;;;;;23.77;48.33;100797.28;5076320;27;45302;-49
2021/07/28 06:33:20;;;;;;;;;2.00;2.00;;;;;23.76;48.27;100799.06;5076193;27;45406;-49
2021/07/28 06:35:50;;;;;;;;;2.50;2.00;;;;;23.76;48.57;100799.06;5076505;27;45477;-54
2021/07/28 06:38:15;;;;;;;;;3.00;3.00;;;;;23.76;48.40;100800.91;5075773;28;45999;-56
2021/07/28 06:40:42;;;;;;;;;2.00;2.00;;;;;23.75;48.89;100796.56;5074507;28;45513;-52
2021/07/28 06:43:07;;;;;;;;;4.00;2.75;;;;;23.75;48.59;100793.91;5076175;27;45327;-53
2021/07/28 06:45:33;;;;;;;;;3.00;3.00;;;;;23.76;48.92;100790.31;5076106;28;45552;-54
2021/07/28 06:47:58;;;;;;;;;2.00;2.00;;;;;23.74;48.55;100793.06;5075871;27;46156;-49
2021/07/28 06:50:24;;;;;;;;;3.00;2.00;;;;;23.76;48.46;100792.97;5075839;27;45323;-54
2021/07/28 06:52:49;;;;;;;;;4.00;3.00;;;;;23.76;48.56;100785.84;5075968;27;45244;-47
2021/07/28 06:55:15;;;;;;;;;4.50;3.00;;;;;23.78;48.65;100794.53;5076067;27;45512;-49
2021/07/28 06:57:40;;;;;;;;;3.00;3.00;;;;;23.81;48.53;100797.91;5075498;28;46130;-47
2021/07/28 07:00:06;;;;;;;;;3.00;3.00;;;;;23.78;48.65;100799.81;5075633;27;45318;-49
2021/07/28 07:02:32;;;;;;;;;3.50;3.00;;;;;23.80;48.62;100798.88;5075986;27;45347;-48
2021/07/28 07:04:58;;;;;;;;;2.75;2.75;;;;;23.81;48.32;100805.88;5077920;27;45280;-49
2021/07/28 07:07:24;;;;;;;;;2.50;2.50;;;;;23.81;48.26;100808.50;5079023;27;45367;-54
2021/07/28 07:09:51;;;;;;;;;4.25;4.00;;;;;23.80;48.87;100805.03;5077713;28;45825;-51
2021/07/28 07:12:17;;;;;;;;;4.00;3.00;;;;;23.82;48.55;100808.38;5079192;27;45404;-51
2021/07/28 07:14:42;;;;;;;;;3.75;3.75;;;;;23.83;48.68;100803.97;5079263;27;45608;-45
2021/07/28 07:17:08;;;;;;;;;2.00;2.00;;;;;23.83;48.30;100811.91;5078527;27;53798;-57
2021/07/28 07:19:33;;;;;;;;;3.50;3.50;;;;;23.82;48.27;100813.69;5078882;27;45405;-51
2021/07/28 07:21:58;;;;;;;;;2.75;2.75;;;;;23.82;48.42;100810.22;5078984;27;45721;-53
2021/07/28 07:24:24;;;;;;;;;2.75;2.75;;;;;23.83;48.55;100809.25;5079002;27;45614;-48
2021/07/28 07:26:50;;;;;;;;;2.50;2.50;;;;;23.83;48.35;100814.53;5078768;27;46163;-49
2021/07/28 07:29:15;;;;;;;;;1.75;1.75;;;;;23.86;48.58;100822.28;5077374;27;45490;-46
2021/07/28 07:31:41;;;;;;;;;4.00;4.00;;;;;23.85;48.36;100810.84;5078875;27;45329;-52
2021/07/28 07:34:07;;;;;;;;;2.75;2.25;;;;;23.85;48.10;100812.66;5079041;27;45634;-47
2021/07/28 07:36:32;;;;;;;;;3.75;3.00;;;;;23.85;48.12;100812.66;5078438;27;46005;-53
2021/07/28 07:38:57;;;;;;;;;3.50;3.50;;;;;23.86;48.86;100817.00;5078869;27;45358;-53
2021/07/28 07:41:23;;;;;;;;;5.25;4.00;;;;;23.86;48.48;100817.81;5078615;27;45231;-52
2021/07/28 07:43:48;;;;;;;;;2.75;2.75;;;;;23.86;48.74;100823.13;5078756;27;45347;-51
2021/07/28 07:46:14;;;;;;;;;6.00;3.75;;;;;23.88;48.43;100823.00;5078296;27;45470;-50
2021/07/28 07:48:39;;;;;;;;;4.00;4.00;;;;;23.87;48.47;100818.66;5078370;27;45280;-51
2021/07/28 07:51:04;;;;;;;;;3.50;3.50;;;;;23.88;48.44;100820.34;5078546;27;45326;-50
2021/07/28 07:53:30;;;;;;;;;5.50;3.00;;;;;23.89;48.31;100828.19;5078944;27;45507;-48
2021/07/28 07:55:57;;;;;;;;;4.25;3.00;;;;;23.88;48.79;100813.28;5078154;27;45322;-50
2021/07/28 07:58:22;;;;;;;;;4.00;3.00;;;;;23.89;48.52;100816.75;5078044;27;45341;-47
2021/07/28 08:00:47;;;;;;;;;4.50;3.00;;;;;23.89;48.83;100822.91;5078405;27;45838;-52
2021/07/28 08:03:13;;;;;;;;;2.75;2.75;;;;;23.92;48.54;100819.19;5078328;27;45448;-47
2021/07/28 08:05:38;;;;;;;;;3.75;2.00;;;;;23.90;48.37;100821.97;5078156;27;46036;-53
2021/07/28 08:08:04;;;;;;;;;5.00;4.00;;;;;23.91;48.49;100820.16;5078140;27;45729;-47
2021/07/28 08:10:29;;;;;;;;;2.75;2.25;;;;;23.92;48.38;100816.53;5078510;27;45449;-53
2021/07/28 08:12:54;;;;;;;;;3.00;3.00;;;;;23.90;48.57;100807.84;5078310;27;45224;-50
2021/07/28 08:15:20;;;;;;;;;4.00;4.00;;;;;23.93;48.57;100807.66;5077734;27;49230;-49
2021/07/28 08:17:45;;;;;;;;;4.00;3.25;;;;;23.93;48.49;100813.78;5077858;27;45358;-47
2021/07/28 08:20:11;;;;;;;;;4.25;2.50;;;;;23.96;48.55;100822.50;5078128;27;45319;-52
2021/07/28 08:22:36;;;;;;;;;3.00;3.00;;;;;23.94;48.89;100820.78;5078226;27;45592;-47
2021/07/28 08:25:02;;;;;;;;;4.75;3.25;;;;;23.95;48.46;100813.72;5078164;28;45449;-48
2021/07/28 08:27:27;;;;;;;;;5.00;4.00;;;;;23.97;48.39;100819.75;5077812;27;45341;-46
2021/07/28 08:29:56;;;;;;;;;3.25;3.25;;;;;23.97;47.96;100808.31;5077859;27;45390;-48
2021/07/28 08:32:22;;;;;;;;;4.50;3.75;;;;;23.98;48.26;100810.84;5078014;27;45272;-48
2021/07/28 08:34:47;;;;;;;;;2.50;2.50;;;;;24.00;48.19;100808.09;5077726;27;45498;-49
2021/07/28 08:37:12;;;;;;;;;2.75;2.75;;;;;24.00;47.58;100808.94;5077476;27;45321;-51
2021/07/28 08:39:38;;;;;;;;;4.25;4.25;;;;;24.00;47.73;100805.44;5076588;27;45414;-47
2021/07/28 08:42:05;;;;;;;;;5.00;3.00;;;;;24.01;47.39;100810.63;5078145;27;45606;-49
2021/07/28 08:44:35;;;;;;;;;4.50;3.00;;;;;24.02;47.61;100806.19;5077886;27;46156;-48
2021/07/28 08:47:01;;;;;;;;;4.00;2.75;;;;;24.02;47.22;100807.03;5077818;27;45347;-47
2021/07/28 08:49:27;;;;;;;;;3.25;3.25;;;;;24.02;47.29;100812.31;5077740;27;45340;-53
2021/07/28 08:51:53;;;;;;;;;3.00;3.00;;;;;24.03;47.59;100806.06;5077817;27;45460;-51
2021/07/28 08:54:18;;;;;;;;;4.00;3.00;;;;;24.03;46.95;100803.44;5077344;27;46059;-49
2021/07/28 08:56:44;;;;;;;;;4.50;4.00;;;;;24.02;47.06;100801.72;5077241;27;45329;-46
2021/07/28 08:59:30;;;;;;;;;2.00;2.00;;;;;24.03;47.22;100808.72;5077566;27;45249;-46
2021/07/28 09:01:57;;;;;;;;;4.00;3.00;;;;;24.03;46.68;100807.88;5077548;27;45898;-49
2021/07/28 09:04:23;;;;;;;;;2.50;2.50;;;;;24.02;46.53;100804.38;5077213;27;45505;-50
2021/07/28 09:06:49;;;;;;;;;3.75;3.00;;;;;24.01;46.22;100810.63;5077323;27;45283;-53
2021/07/28 09:09:14;;;;;;;;;2.50;2.50;;;;;24.01;46.94;100812.44;5077440;27;45377;-56
2021/07/28 09:12:01;;;;;;;;;2.75;2.75;;;;;24.00;46.24;100813.41;5077471;27;45542;-50
2021/07/28 09:14:30;;;;;;;;;2.00;2.00;;;;;24.00;46.21;100810.75;5077002;28;46257;-46
2021/07/28 09:17:18;;;;;;;;;2.00;2.00;;;;;24.00;45.91;100818.69;5077122;27;45850;-44
2021/07/28 09:19:48;;;;;;;;;5.25;4.00;;;;;23.99;46.37;100817.81;5077142;27;45327;-53
2021/07/28 09:22:16;;;;;;;;;3.00;2.75;;;;;23.99;46.13;100807.25;5077319;28;45335;-53
2021/07/28 09:24:44;;;;;;;;;3.25;2.25;;;;;23.99;46.18;100817.81;5075594;28;47235;-54
2021/07/28 09:27:40;;;;;;;;;4.25;2.75;;;;;23.99;46.01;100815.19;5076294;27;45628;-55
2021/07/28 09:30:05;;;;;;;;;2.00;2.00;;;;;24.01;45.91;100817.75;5077272;27;45468;-48
2021/07/28 09:32:32;;;;;;;;;1.00;1.00;;;;;24.01;46.37;100812.44;5077130;28;45256;-45
2021/07/28 09:34:58;;;;;;;;;2.50;2.50;;;;;24.00;46.12;100814.22;5076846;27;46352;-51
2021/07/28 09:37:24;;;;;;;;;2.00;2.00;;;;;24.00;46.48;100821.34;5075420;28;45589;-48
2021/07/28 09:39:51;;;;;;;;;3.00;2.00;;;;;23.99;46.29;100809.88;5076866;27;45364;-48
2021/07/28 09:42:26;;;;;;;;;3.00;3.00;;;;;24.01;46.04;100815.91;5076987;27;45544;-48
2021/07/28 09:44:59;;;;;;;;;5.00;2.00;;;;;24.00;46.28;100816.88;5076709;27;45247;-50
2021/07/28 09:47:26;;;;;;;;;5.25;3.75;;;;;23.99;46.10;100817.81;5076677;27;45718;-45
2021/07/28 09:49:57;;;;;;;;;3.25;2.25;;;;;24.01;46.04;100821.22;5076887;27;45248;-51
2021/07/28 09:52:23;;;;;;;;;2.00;2.00;;;;;24.01;46.24;100815.91;5076854;27;45354;-47
2021/07/28 09:54:51;;;;;;;;;4.00;3.00;;;;;24.02;46.28;100816.78;5076453;27;45920;-48
2021/07/28 09:57:21;;;;;;;;;2.25;2.25;;;;;24.01;45.99;100813.28;5076210;27;45426;-55
2021/07/28 09:59:51;;;;;;;;;2.50;2.50;;;;;24.03;45.72;100815.84;5076744;27;45443;-52
2021/07/28 10:02:19;;;;;;;;;2.75;2.25;;;;;24.05;46.18;100821.84;5076935;27;45527;-48
2021/07/28 10:04:48;;;;;;;;;2.75;2.75;;;;;24.05;45.81;100827.13;5075160;28;48538;-49
2021/07/28 10:07:17;;;;;;;;;3.50;3.00;;;;;24.06;46.39;100826.19;5076552;27;45663;-50
2021/07/28 10:09:49;;;;;;;;;3.25;3.25;;;;;24.07;46.03;100812.84;5075404;28;45313;-46
2021/07/28 10:12:16;;;;;;;;;3.50;3.00;;;;;24.08;45.90;100819.00;5076863;27;45372;-50
2021/07/28 10:14:43;;;;;;;;;3.00;2.75;;;;;24.09;45.72;100824.16;5076251;28;46202;-50
2021/07/28 10:17:10;;;;;;;;;2.00;2.00;;;;;24.09;45.93;100818.03;5076551;27;45204;-45
2021/07/28 10:19:36;;;;;;;;;2.25;2.25;;;;;24.11;46.10;100820.56;5076754;27;45334;-49
2021/07/28 10:22:04;;;;;;;;;2.00;2.00;;;;;24.12;45.90;100815.19;5076600;27;45346;-45
2021/07/28 10:24:30;;;;;;;;;2.00;2.00;;;;;24.11;45.71;100820.56;5076114;27;46938;-47
2021/07/28 10:26:59;;;;;;;;;5.00;3.00;;;;;24.13;45.57;100818.66;5076089;28;45231;-47
2021/07/28 10:29:24;;;;;;;;;2.50;2.50;;;;;24.12;45.26;100812.53;5076461;27;45994;-43
2021/07/28 10:31:53;;;;;;;;;3.00;3.00;;;;;24.14;45.51;100820.34;5076381;27;45615;-47
2021/07/28 10:34:29;;;;;;;;;3.00;2.25;;;;;24.14;45.55;100823.00;5076005;27;46253;-43
2021/07/28 10:37:01;;;;;;;;;3.50;3.00;;;;;24.15;45.36;100824.69;5076033;27;45456;-51
2021/07/28 10:39:50;;;;;;;;;4.00;2.25;;;;;24.16;45.53;100818.44;5076827;27;45386;-44
2021/07/28 10:42:19;;;;;;;;;3.00;3.00;;;;;24.17;45.17;100814.84;5079798;27;45450;-44
2021/07/28 10:44:56;;;;;;;;;2.75;2.75;;;;;24.17;45.27;100812.19;5079415;27;46004;-44
2021/07/28 10:47:44;;;;;;;;;3.50;3.50;;;;;24.19;45.33;100820.88;5079509;27;45872;-50
2021/07/28 10:50:22;;;;;;;;;3.75;2.75;;;;;24.20;45.56;100809.31;5079743;27;45350;-45
2021/07/28 10:52:51;;;;;;;;;3.25;2.50;;;;;24.21;45.02;100811.00;5079670;27;45519;-43
2021/07/28 10:55:18;;;;;;;;;2.50;2.00;;;;;24.20;45.00;100809.31;5079308;27;46656;-45
2021/07/28 10:57:52;;;;;;;;;3.00;3.00;;;;;24.21;45.34;100811.00;5079047;27;45745;-43
2021/07/28 11:00:39;;;;;;;;;3.00;3.00;;;;;24.21;44.96;100806.56;5079451;27;45330;-45
2021/07/28 11:03:07;;;;;;;;;3.25;3.25;;;;;24.22;45.05;100812.69;5079466;27;45350;-46
2021/07/28 11:05:34;;;;;;;;;4.00;2.75;;;;;24.22;45.17;100802.09;5079143;27;45270;-46
2021/07/28 11:08:02;;;;;;;;;3.50;3.50;;;;;24.23;44.63;100803.81;5079196;27;45486;-46
2021/07/28 11:10:34;;;;;;;;;2.25;2.00;;;;;24.24;44.69;100800.19;5079415;27;45417;-47
2021/07/28 11:13:13;;;;;;;;;3.50;2.50;;;;;24.23;44.84;100809.97;5079467;27;45338;-44
2021/07/28 11:15:50;;;;;;;;;3.00;3.00;;;;;24.24;44.87;100809.00;5079569;27;46215;-44
2021/07/28 11:18:15;;;;;;;;;3.00;3.00;;;;;24.26;44.85;100808.88;5078936;27;45584;-46
2021/07/28 11:20:41;;;;;;;;;2.50;2.50;;;;;24.27;44.68;100805.28;5079524;27;45397;-55
2021/07/28 11:23:24;;;;;;;;;2.00;2.00;;;;;24.27;44.23;100805.28;5079308;27;45614;-48
2021/07/28 11:25:53;;;;;;;;;3.00;3.00;;;;;24.28;44.92;100820.22;5078863;27;46327;-52